createdAt,value
2023-01-08T00:01:04.949Z,69.50
2023-01-08T00:04:32.795Z,69.50
2023-01-08T00:07:59.313Z,68.40
2023-01-08T00:11:27.851Z,66.00
2023-01-08T00:14:55.230Z,64.70
2023-01-08T00:18:22.256Z,65.70
2023-01-08T00:21:50.581Z,68.00
2023-01-08T00:25:18.781Z,65.60
2023-01-08T00:28:46.375Z,64.30
2023-01-08T00:32:13.661Z,57.80
2023-01-08T00:35:43.745Z,58.80
2023-01-08T00:39:11.503Z,64.80
2023-01-08T00:42:38.394Z,61.20
2023-01-08T00:46:06.735Z,64.90
2023-01-08T00:49:36.204Z,59.70
2023-01-08T00:53:04.483Z,73.60
2023-01-08T00:56:31.667Z,57.20
2023-01-08T00:59:58.377Z,60.90
2023-01-08T01:03:26.510Z,58.10
2023-01-08T01:06:55.238Z,59.20
2023-01-08T01:10:22.788Z,61.50
2023-01-08T01:13:52.645Z,60.50
2023-01-08T01:17:20.653Z,59.10
2023-01-08T01:20:48.482Z,58.70
2023-01-08T01:24:16.118Z,57.00
2023-01-08T01:27:43.164Z,61.50
2023-01-08T01:31:12.799Z,59.60
2023-01-08T01:34:39.771Z,59.30
2023-01-08T01:38:08.884Z,59.40
2023-01-08T01:41:42.903Z,64.50
2023-01-08T01:45:21.462Z,62.40
2023-01-08T01:48:53.075Z,59.30
2023-01-08T01:52:23.825Z,61.10
2023-01-08T01:55:52.176Z,64.10
2023-01-08T01:59:20.055Z,65.30
2023-01-08T02:02:48.360Z,59.50
2023-01-08T02:06:28.528Z,57.90
2023-01-08T02:10:03.158Z,60.00
2023-01-08T02:13:36.737Z,62.40
2023-01-08T02:20:37.399Z,60.40
2023-01-08T02:24:11.743Z,61.50
2023-01-08T02:27:42.552Z,59.70
2023-01-08T02:31:10.581Z,62.20
2023-01-08T02:34:38.713Z,55.80
2023-01-08T02:38:06.479Z,59.30
2023-01-08T02:41:43.977Z,61.60
2023-01-08T02:45:23.543Z,61.20
2023-01-08T02:48:55.597Z,59.20
2023-01-08T02:52:25.925Z,64.20
2023-01-08T02:55:57.241Z,61.90
2023-01-08T02:59:27.479Z,60.80
2023-01-08T03:03:03.373Z,61.80
2023-01-08T03:06:32.529Z,62.60
2023-01-08T03:10:00.359Z,57.40
2023-01-08T03:13:33.980Z,60.00
2023-01-08T03:17:06.797Z,61.70
2023-01-08T03:20:37.456Z,62.60
2023-01-08T03:24:06.130Z,59.40
2023-01-08T03:27:35.800Z,55.90
2023-01-08T03:31:04.177Z,55.70
2023-01-08T03:34:35.389Z,63.40
2023-01-08T03:38:08.597Z,55.50
2023-01-08T03:41:38.649Z,60.00
2023-01-08T03:45:06.484Z,57.30
2023-01-08T03:48:36.004Z,58.30
2023-01-08T03:52:05.211Z,59.80
2023-01-08T03:55:31.734Z,59.00
2023-01-08T03:58:58.287Z,58.40
2023-01-08T04:02:25.519Z,60.80
2023-01-08T04:05:52.736Z,57.80
2023-01-08T04:09:19.383Z,61.20
2023-01-08T04:12:47.213Z,61.90
2023-01-08T04:16:14.201Z,62.20
2023-01-08T04:19:41.774Z,63.10
2023-01-08T04:23:08.794Z,64.00
2023-01-08T04:26:35.778Z,67.10
2023-01-08T04:30:03.726Z,66.80
2023-01-08T04:33:30.798Z,70.30
2023-01-08T04:36:58.450Z,69.70
2023-01-08T04:40:25.709Z,66.30
2023-01-08T04:43:53.418Z,70.40
2023-01-08T04:47:20.465Z,68.40
2023-01-08T04:50:47.991Z,62.10
2023-01-08T04:54:15.281Z,67.10
2023-01-08T04:57:42.292Z,65.50
2023-01-08T05:01:15.689Z,73.50
2023-01-08T05:08:08.346Z,73.20
2023-01-08T05:11:35.872Z,67.00
2023-01-08T05:15:05.529Z,67.40
2023-01-08T05:18:33.672Z,64.70
2023-01-08T05:22:01.813Z,71.80
2023-01-08T05:25:29.852Z,64.70
2023-01-08T05:28:59.485Z,65.70
2023-01-08T05:32:29.963Z,68.90
2023-01-08T05:35:58.289Z,67.30
2023-01-08T05:39:42.205Z,65.30
2023-01-08T05:43:13.968Z,67.30
2023-01-08T05:46:41.820Z,70.50
2023-01-08T05:50:10.001Z,66.30
2023-01-08T05:53:36.787Z,69.90
2023-01-08T05:57:03.638Z,65.70
2023-01-08T06:00:30.955Z,63.70
2023-01-08T06:04:02.918Z,56.70
2023-01-08T06:07:32.732Z,61.30
2023-01-08T06:11:02.231Z,61.70
2023-01-08T06:14:31.125Z,55.90
2023-01-08T06:17:58.622Z,63.10
2023-01-08T06:21:27.361Z,61.40
2023-01-08T06:24:56.637Z,58.70
2023-01-08T06:28:23.922Z,61.70
2023-01-08T06:31:50.386Z,59.70
2023-01-08T06:35:20.286Z,60.50
2023-01-08T06:38:47.868Z,55.70
2023-01-08T06:42:14.920Z,59.50
2023-01-08T06:45:41.984Z,61.30
2023-01-08T06:49:08.517Z,57.70
2023-01-08T06:52:35.276Z,57.40
2023-01-08T06:56:02.103Z,58.10
2023-01-08T06:59:29.057Z,64.30
2023-01-08T07:02:56.634Z,67.20
2023-01-08T07:06:24.129Z,62.30
2023-01-08T07:09:51.153Z,63.50
2023-01-08T07:13:18.224Z,62.50
2023-01-08T07:16:45.232Z,58.70
2023-01-08T07:20:13.146Z,57.40
2023-01-08T07:23:42.486Z,60.30
2023-01-08T07:27:09.603Z,60.90
2023-01-08T07:30:37.004Z,60.50
2023-01-08T07:34:03.577Z,58.40
2023-01-08T07:37:30.063Z,68.20
2023-01-08T07:40:58.534Z,64.10
2023-01-08T07:44:25.648Z,62.00
2023-01-08T07:47:55.203Z,57.80
2023-01-08T07:51:22.095Z,57.30
2023-01-08T07:54:48.843Z,60.10
2023-01-08T07:58:16.476Z,55.60
2023-01-08T08:01:45.388Z,59.80
2023-01-08T08:05:13.814Z,61.00
2023-01-08T08:08:42.315Z,54.60
2023-01-08T08:12:10.134Z,53.40
2023-01-08T08:15:40.228Z,54.40
2023-01-08T08:19:08.512Z,60.30
2023-01-08T08:22:36.209Z,56.10
2023-01-08T08:26:05.651Z,61.10
2023-01-08T08:29:32.156Z,65.40
2023-01-08T08:33:02.025Z,57.30
2023-01-08T08:36:33.304Z,56.10
2023-01-08T08:39:59.875Z,55.90
2023-01-08T08:43:27.651Z,58.90
2023-01-08T08:46:54.790Z,59.00
2023-01-08T08:50:22.841Z,52.80
2023-01-08T08:53:49.799Z,58.10
2023-01-08T08:57:16.420Z,52.60
2023-01-08T09:00:46.634Z,52.20
2023-01-08T09:04:13.453Z,55.20
2023-01-08T09:07:42.200Z,58.90
2023-01-08T09:11:08.970Z,55.90
2023-01-08T09:14:36.328Z,55.90
2023-01-08T09:18:03.122Z,53.30
2023-01-08T09:21:30.693Z,58.20
2023-01-08T09:24:57.608Z,57.00
2023-01-08T09:28:24.798Z,59.70
2023-01-08T09:31:51.903Z,55.40
2023-01-08T09:35:22.152Z,52.90
2023-01-08T09:38:49.415Z,55.70
2023-01-08T09:42:17.317Z,57.70
2023-01-08T09:45:47.554Z,58.30
2023-01-08T09:49:22.541Z,59.90
2023-01-08T09:52:50.766Z,52.80
2023-01-08T09:56:21.254Z,56.90
2023-01-08T09:59:49.805Z,62.50
2023-01-08T10:03:17.324Z,63.90
2023-01-08T10:06:48.093Z,56.10
2023-01-08T10:10:22.091Z,57.60
2023-01-08T10:13:55.435Z,56.50
2023-01-08T10:17:28.747Z,54.70
2023-01-08T10:20:55.258Z,56.60
2023-01-08T10:24:34.571Z,56.80
2023-01-08T10:28:03.398Z,53.90
2023-01-08T10:31:30.794Z,56.60
2023-01-08T10:35:00.663Z,58.80
2023-01-08T10:38:35.896Z,56.50
2023-01-08T10:42:08.522Z,59.10
2023-01-08T10:45:36.122Z,56.50
2023-01-08T10:49:08.067Z,55.50
2023-01-08T10:52:39.176Z,54.00
2023-01-08T10:56:19.048Z,59.60
2023-01-08T10:59:46.108Z,59.20
2023-01-08T11:03:25.013Z,55.70
2023-01-08T11:06:52.115Z,62.00
2023-01-08T11:10:28.993Z,62.30
2023-01-08T11:14:02.477Z,72.90
2023-01-08T11:21:08.044Z,63.90
2023-01-08T11:24:37.214Z,71.00
2023-01-08T11:28:06.245Z,68.70
2023-01-08T11:31:40.971Z,60.50
2023-01-08T11:35:14.126Z,57.50
2023-01-08T11:42:22.113Z,57.30
2023-01-08T11:46:03.092Z,59.50
2023-01-08T11:49:57.052Z,60.90
2023-01-08T11:53:30.340Z,63.40
2023-01-08T11:57:09.948Z,60.50
2023-01-08T12:00:46.073Z,61.30
2023-01-08T12:04:38.472Z,60.20
2023-01-08T12:08:14.488Z,60.40
2023-01-08T12:11:48.430Z,62.10
2023-01-08T12:19:04.213Z,59.20
2023-01-08T12:22:43.611Z,55.80
2023-01-08T12:26:27.657Z,68.10
2023-01-08T12:30:09.719Z,58.60
2023-01-08T12:33:43.759Z,51.50
2023-01-08T12:37:17.021Z,57.20
2023-01-08T12:40:49.054Z,54.90
2023-01-08T12:44:23.326Z,51.40
2023-01-08T12:47:55.356Z,63.00
2023-01-08T12:51:33.316Z,57.60
2023-01-08T12:55:24.982Z,55.90
2023-01-08T13:02:39.118Z,58.50
2023-01-08T13:06:13.660Z,53.00
2023-01-08T13:09:43.702Z,67.70
2023-01-08T13:13:29.675Z,58.20
2023-01-08T13:17:08.251Z,63.00
2023-01-08T13:20:36.171Z,60.10
2023-01-08T13:24:27.150Z,52.10
2023-01-08T13:27:56.744Z,50.00
2023-01-08T13:31:31.100Z,53.70
2023-01-08T13:35:21.848Z,52.80
2023-01-08T13:39:00.821Z,48.90
2023-01-08T13:42:29.486Z,49.60
2023-01-08T13:46:15.306Z,47.60
2023-01-08T13:49:52.777Z,51.00
2023-01-08T13:53:22.605Z,47.10
2023-01-08T13:56:55.371Z,49.30
2023-01-08T14:00:31.558Z,51.00
2023-01-08T14:03:59.517Z,50.80
2023-01-08T14:07:27.904Z,56.70
2023-01-08T14:10:55.482Z,59.30
2023-01-08T14:14:24.520Z,55.10
2023-01-08T14:17:51.662Z,54.10
2023-01-08T14:21:22.394Z,60.60
2023-01-08T14:24:55.480Z,67.20
2023-01-08T14:28:25.930Z,51.30
2023-01-08T14:31:54.529Z,48.90
2023-01-08T14:35:24.848Z,54.50
2023-01-08T14:38:52.661Z,49.50
2023-01-08T14:42:45.939Z,54.00
2023-01-08T14:46:20.759Z,47.90
2023-01-08T14:49:54.558Z,50.10
2023-01-08T14:53:29.119Z,53.30
2023-01-08T14:56:59.530Z,50.40
2023-01-08T15:00:30.535Z,47.90
2023-01-08T15:04:10.821Z,49.80
2023-01-08T15:07:37.979Z,50.40
2023-01-08T15:11:07.010Z,44.50
2023-01-08T15:14:37.260Z,49.30
2023-01-08T15:18:06.228Z,52.90
2023-01-08T15:21:33.579Z,51.60
2023-01-08T15:25:04.520Z,46.90
2023-01-08T15:28:33.475Z,50.40
2023-01-08T15:32:12.749Z,59.60
2023-01-08T15:35:40.736Z,59.50
2023-01-08T15:39:08.093Z,55.60
2023-01-08T15:42:53.279Z,55.10
2023-01-08T15:46:20.436Z,57.60
2023-01-08T15:49:47.504Z,56.10
2023-01-08T15:53:18.325Z,59.00
2023-01-08T15:56:49.994Z,50.40
2023-01-08T16:00:20.021Z,49.10
2023-01-08T16:03:47.526Z,52.30
2023-01-08T16:07:13.930Z,47.10
2023-01-08T16:10:43.084Z,50.20
2023-01-08T16:14:11.911Z,49.00
2023-01-08T16:17:39.628Z,50.60
2023-01-08T16:21:07.213Z,48.30
2023-01-08T16:24:34.889Z,55.00
2023-01-08T16:28:03.320Z,53.90
2023-01-08T16:31:30.767Z,56.40
2023-01-08T16:34:58.185Z,52.40
2023-01-08T16:38:27.388Z,57.70
2023-01-08T16:41:55.471Z,56.90
2023-01-08T16:45:22.522Z,55.40
2023-01-08T16:48:50.928Z,52.20
2023-01-08T16:52:18.663Z,51.40
2023-01-08T16:55:46.066Z,53.00
2023-01-08T16:59:30.957Z,54.90
2023-01-08T17:03:02.479Z,56.10
2023-01-08T17:06:29.823Z,51.60
2023-01-08T17:09:57.438Z,50.50
2023-01-08T17:13:25.547Z,55.60
2023-01-08T17:16:52.137Z,54.30
2023-01-08T17:20:20.212Z,54.50
2023-01-08T17:23:48.540Z,54.30
2023-01-08T17:27:16.128Z,56.60
2023-01-08T17:30:43.840Z,54.40
2023-01-08T17:34:13.606Z,52.50
2023-01-08T17:37:40.752Z,51.40
2023-01-08T17:41:10.323Z,54.50
2023-01-08T17:44:37.231Z,58.60
2023-01-08T17:48:03.993Z,59.10
2023-01-08T17:51:30.489Z,59.90
2023-01-08T17:54:57.169Z,60.30
2023-01-08T17:58:23.715Z,63.50
2023-01-08T18:01:54.282Z,59.90
2023-01-08T18:05:22.257Z,59.00
2023-01-08T18:08:48.585Z,61.70
2023-01-08T18:12:14.964Z,56.80
2023-01-08T18:15:41.459Z,59.30
2023-01-08T18:19:08.841Z,56.60
2023-01-08T18:22:36.045Z,58.70
2023-01-08T18:26:12.413Z,55.60
2023-01-08T18:29:41.467Z,54.90
2023-01-08T18:33:08.568Z,55.80
2023-01-08T18:36:37.316Z,53.90
2023-01-08T18:40:08.935Z,55.60
2023-01-08T18:43:41.846Z,58.90
2023-01-08T18:47:12.742Z,60.90
2023-01-08T18:50:43.968Z,60.40
2023-01-08T18:54:11.850Z,55.50
2023-01-08T18:57:50.355Z,60.60
2023-01-08T19:01:19.200Z,70.20
2023-01-08T19:04:45.687Z,63.00
2023-01-08T19:08:15.311Z,59.50
2023-01-08T19:11:45.257Z,56.20
2023-01-08T19:15:16.551Z,53.40
2023-01-08T19:18:44.870Z,56.10
2023-01-08T19:22:12.408Z,64.20
2023-01-08T19:25:41.760Z,57.40
2023-01-08T19:29:11.684Z,64.20
2023-01-08T19:32:40.105Z,61.00
2023-01-08T19:36:12.886Z,66.90
2023-01-08T19:39:44.921Z,69.00
2023-01-08T19:43:31.380Z,63.30
2023-01-08T19:47:01.086Z,62.50
2023-01-08T19:50:37.159Z,66.60
2023-01-08T19:54:04.761Z,86.60
2023-01-08T19:57:32.568Z,74.70
2023-01-08T20:01:06.770Z,67.40
2023-01-08T20:04:36.456Z,69.50
2023-01-08T20:08:04.575Z,65.40
2023-01-08T20:11:38.031Z,62.70
2023-01-08T20:15:08.300Z,72.20
2023-01-08T20:18:37.604Z,70.40
2023-01-08T20:22:05.891Z,68.00
2023-01-08T20:25:37.396Z,66.10
2023-01-08T20:29:06.060Z,66.00
2023-01-08T20:32:35.045Z,63.80
2023-01-08T20:36:02.434Z,65.20
2023-01-08T20:39:29.892Z,61.40
2023-01-08T20:42:57.349Z,63.20
2023-01-08T20:46:30.001Z,67.70
2023-01-08T20:49:58.411Z,62.60
2023-01-08T20:53:25.496Z,60.70
2023-01-08T20:56:57.724Z,73.40
2023-01-08T21:03:56.127Z,65.20
2023-01-08T21:07:24.058Z,67.10
2023-01-08T21:11:00.279Z,64.40
2023-01-08T21:14:27.997Z,65.70
2023-01-08T21:17:54.661Z,68.70
2023-01-08T21:21:24.382Z,69.90
2023-01-08T21:24:53.508Z,70.80
2023-01-08T21:28:20.870Z,69.50
2023-01-08T21:31:49.601Z,64.30
2023-01-08T21:35:16.891Z,63.30
2023-01-08T21:38:47.084Z,67.30
2023-01-08T21:42:32.079Z,65.20
2023-01-08T21:46:07.172Z,64.30
2023-01-08T21:49:41.987Z,66.30
2023-01-08T21:53:27.866Z,61.60
2023-01-08T21:56:54.744Z,65.70
2023-01-08T22:00:24.668Z,61.50
2023-01-08T22:03:51.797Z,66.20
2023-01-08T22:07:21.032Z,64.90
2023-01-08T22:10:47.806Z,72.80
2023-01-08T22:14:14.648Z,67.60
2023-01-08T22:17:41.987Z,72.60
2023-01-08T22:21:11.560Z,70.40
2023-01-08T22:24:38.784Z,72.50
2023-01-08T22:28:05.354Z,69.20
2023-01-08T22:31:36.723Z,70.70
2023-01-08T22:35:03.811Z,67.50
2023-01-08T22:38:30.538Z,68.70
2023-01-08T22:41:57.326Z,65.50
2023-01-08T22:45:24.315Z,63.10
2023-01-08T22:48:51.154Z,63.60
2023-01-08T22:52:19.531Z,62.50
2023-01-08T22:55:47.170Z,63.30
2023-01-08T22:59:13.509Z,63.70
2023-01-08T23:02:40.718Z,62.60
2023-01-08T23:06:12.722Z,59.10
2023-01-08T23:09:39.105Z,62.20
2023-01-08T23:13:05.989Z,62.50
2023-01-08T23:16:33.109Z,60.40
2023-01-08T23:20:02.060Z,66.30
2023-01-08T23:23:30.941Z,68.40
2023-01-08T23:26:57.971Z,67.70
2023-01-08T23:30:24.843Z,70.30
2023-01-08T23:33:51.394Z,67.80
2023-01-08T23:37:18.004Z,67.90
2023-01-08T23:40:46.757Z,64.70
2023-01-08T23:44:15.403Z,64.70
2023-01-08T23:47:42.225Z,67.60
2023-01-08T23:51:09.308Z,67.80
2023-01-08T23:54:36.079Z,63.40
2023-01-08T23:58:02.711Z,67.30
